Hartford, Connecticut
Traffic Map
Current Weather Conditions
Hartford, Connecticut
Clear
Clear
46°
Feels Like: 46°
Wind Chill: 46° Ceiling: Unl
Heat Index: 46° Visibility: 10mi
Dew Point: 45° Wind: 0mph
Humidity: 96% Direction: ° ()
Pressure: 30.15in Gusts: 0mph
Raw Report DataKHFD 250653Z AUTO 00000KT 10SM CLR 08/07 A3015 RMK AO2 SLP209 T00780072
Traffic Incident Summary
Active as of:
Severity:
Category:
InformationThere was an issue retrieving the traffic information for this location. Please try a different location or try again shortly.
Advertisements
Track Severe Weather on mobile